createdAt,value
2023-02-15T00:01:07.155Z,3.16
2023-02-15T00:03:08.941Z,3.12
2023-02-15T00:05:10.470Z,3.09
2023-02-15T00:07:13.151Z,3.07
2023-02-15T00:09:14.716Z,3.03
2023-02-15T00:11:18.796Z,3.02
2023-02-15T00:13:20.638Z,3.00
2023-02-15T00:15:23.742Z,2.99
2023-02-15T00:17:28.642Z,2.95
2023-02-15T00:19:30.204Z,2.92
2023-02-15T00:21:33.353Z,2.90
2023-02-15T00:23:35.447Z,2.88
2023-02-15T00:25:37.303Z,2.86
2023-02-15T00:27:38.860Z,2.85
2023-02-15T00:29:40.400Z,2.84
2023-02-15T00:31:43.536Z,2.82
2023-02-15T00:33:45.099Z,2.79
2023-02-15T00:35:47.153Z,2.79
2023-02-15T00:37:48.708Z,2.78
2023-02-15T00:39:50.293Z,2.77
2023-02-15T00:41:52.149Z,2.75
2023-02-15T00:43:54.069Z,2.75
2023-02-15T00:45:56.258Z,2.74
2023-02-15T00:47:59.258Z,2.74
2023-02-15T00:50:00.821Z,2.74
2023-02-15T00:52:02.667Z,2.73
2023-02-15T00:54:04.486Z,2.73
2023-02-15T00:56:06.165Z,2.72
2023-02-15T00:58:08.846Z,2.71
2023-02-15T01:00:11.832Z,2.69
2023-02-15T01:02:13.478Z,2.71
2023-02-15T01:04:16.519Z,2.71
2023-02-15T01:06:18.750Z,2.71
2023-02-15T01:08:20.382Z,2.69
2023-02-15T01:10:22.309Z,2.66
2023-02-15T01:12:24.240Z,2.67
2023-02-15T01:14:25.867Z,2.66
2023-02-15T01:16:29.656Z,2.65
2023-02-15T01:18:32.573Z,2.64
2023-02-15T01:20:38.393Z,2.64
2023-02-15T01:22:39.951Z,2.64
2023-02-15T01:24:41.507Z,2.61
2023-02-15T01:26:43.126Z,2.63
2023-02-15T01:28:45.144Z,2.62
2023-02-15T01:30:46.967Z,2.61
2023-02-15T01:32:48.869Z,2.60
2023-02-15T01:34:50.470Z,2.59
2023-02-15T01:36:53.505Z,2.58
2023-02-15T01:38:55.084Z,2.56
2023-02-15T01:40:59.235Z,2.54
2023-02-15T01:43:01.329Z,2.56
2023-02-15T01:45:05.382Z,2.55
2023-02-15T01:47:11.046Z,2.54
2023-02-15T01:49:16.370Z,2.54
2023-02-15T01:51:25.264Z,2.52
2023-02-15T01:53:35.047Z,2.52
2023-02-15T01:55:41.300Z,2.50
2023-02-15T01:57:44.851Z,2.47
2023-02-15T01:59:51.909Z,2.44
2023-02-15T02:01:58.779Z,2.44
2023-02-15T02:04:08.275Z,2.43
2023-02-15T02:06:10.490Z,2.42
2023-02-15T02:08:12.277Z,2.39
2023-02-15T02:10:17.596Z,2.38
2023-02-15T02:12:21.859Z,2.36
2023-02-15T02:14:25.155Z,2.34
2023-02-15T02:16:35.576Z,2.34
2023-02-15T02:18:47.037Z,2.33
2023-02-15T02:21:27.011Z,2.33
2023-02-15T02:23:42.304Z,2.30
2023-02-15T02:26:25.508Z,2.30
2023-02-15T02:28:58.945Z,2.27
2023-02-15T02:31:25.674Z,2.26
2023-02-15T02:33:53.760Z,2.26
2023-02-15T02:36:04.619Z,2.24
2023-02-15T02:38:13.033Z,2.21
2023-02-15T02:40:23.833Z,2.21
2023-02-15T02:42:34.814Z,2.20
2023-02-15T02:44:43.128Z,2.18
2023-02-15T02:46:51.904Z,2.18
2023-02-15T02:48:56.126Z,2.17
2023-02-15T02:50:57.735Z,2.16
2023-02-15T02:53:00.271Z,2.15
2023-02-15T02:55:04.041Z,2.16
2023-02-15T02:57:09.373Z,2.14
2023-02-15T02:59:17.963Z,2.14
2023-02-15T03:01:25.733Z,2.14
2023-02-15T03:03:33.636Z,2.12
2023-02-15T03:05:42.534Z,2.12
2023-02-15T03:07:50.840Z,2.12
2023-02-15T03:09:54.141Z,2.10
2023-02-15T03:11:55.889Z,2.09
2023-02-15T03:13:58.713Z,2.09
2023-02-15T03:16:03.032Z,2.08
2023-02-15T03:18:05.761Z,2.06
2023-02-15T03:20:09.533Z,2.07
2023-02-15T03:22:19.602Z,2.06
2023-02-15T03:24:26.257Z,2.06
2023-02-15T03:26:31.336Z,2.05
2023-02-15T03:28:37.367Z,2.04
2023-02-15T03:30:43.826Z,2.03
2023-02-15T03:32:47.410Z,2.03
2023-02-15T03:34:49.280Z,2.02
2023-02-15T03:36:56.282Z,2.01
2023-02-15T03:39:08.856Z,2.00
2023-02-15T03:41:12.425Z,1.99
2023-02-15T03:43:20.918Z,1.99
2023-02-15T03:45:28.585Z,1.98
2023-02-15T03:47:35.765Z,1.96
2023-02-15T03:49:43.815Z,1.94
2023-02-15T03:51:49.501Z,1.95
2023-02-15T03:53:53.661Z,1.93
2023-02-15T03:55:56.813Z,1.91
2023-02-15T03:57:58.458Z,1.90
2023-02-15T04:00:01.560Z,1.88
2023-02-15T04:02:17.859Z,1.88
2023-02-15T04:04:25.580Z,1.86
2023-02-15T04:06:27.618Z,1.82
2023-02-15T04:08:29.323Z,1.82
2023-02-15T04:10:30.939Z,1.80
2023-02-15T04:12:34.220Z,1.79
2023-02-15T04:14:36.297Z,1.75
2023-02-15T04:16:37.824Z,1.75
2023-02-15T04:18:41.668Z,1.75
2023-02-15T04:20:44.934Z,1.74
2023-02-15T04:22:46.512Z,1.74
2023-02-15T04:24:48.082Z,1.72
2023-02-15T04:26:49.657Z,1.70
2023-02-15T04:28:52.582Z,1.70
2023-02-15T04:30:54.135Z,1.69
2023-02-15T04:32:56.264Z,1.66
2023-02-15T04:34:57.953Z,1.65
2023-02-15T04:36:59.570Z,1.62
2023-02-15T04:39:01.788Z,1.61
2023-02-15T04:41:03.347Z,1.59
2023-02-15T04:43:05.020Z,1.58
2023-02-15T04:45:08.972Z,1.57
2023-02-15T04:47:11.124Z,1.57
2023-02-15T04:49:12.982Z,1.57
2023-02-15T04:51:14.687Z,1.55
2023-02-15T04:53:16.286Z,1.54
2023-02-15T04:55:17.845Z,1.55
2023-02-15T04:57:19.645Z,1.53
2023-02-15T04:59:21.994Z,1.54
2023-02-15T05:01:24.959Z,1.52
2023-02-15T05:03:26.652Z,1.53
2023-02-15T05:05:28.564Z,1.51
2023-02-15T05:07:30.375Z,1.51
2023-02-15T05:09:31.954Z,1.52
2023-02-15T05:11:33.516Z,1.51
2023-02-15T05:13:35.053Z,1.50
2023-02-15T05:15:36.809Z,1.50
2023-02-15T05:17:40.461Z,1.50
2023-02-15T05:19:42.041Z,1.48
2023-02-15T05:21:43.749Z,1.48
2023-02-15T05:23:45.664Z,1.46
2023-02-15T05:25:48.992Z,1.46
2023-02-15T05:27:50.705Z,1.45
2023-02-15T05:29:52.632Z,1.45
2023-02-15T05:31:54.718Z,1.44
2023-02-15T05:33:57.776Z,1.43
2023-02-15T05:36:00.354Z,1.42
2023-02-15T05:38:03.688Z,1.42
2023-02-15T05:40:06.355Z,1.40
2023-02-15T05:42:07.915Z,1.39
2023-02-15T05:44:09.743Z,1.39
2023-02-15T05:46:12.819Z,1.39
2023-02-15T05:48:14.837Z,1.38
2023-02-15T05:50:18.223Z,1.38
2023-02-15T05:52:19.847Z,1.37
2023-02-15T05:54:21.394Z,1.36
2023-02-15T05:56:23.017Z,1.35
2023-02-15T05:58:24.704Z,1.35
2023-02-15T06:00:26.359Z,1.34
2023-02-15T06:02:27.966Z,1.33
2023-02-15T06:04:30.024Z,1.32
2023-02-15T06:06:33.570Z,1.32
2023-02-15T06:08:36.877Z,1.31
2023-02-15T06:10:38.438Z,1.31
2023-02-15T06:12:40.289Z,1.31
2023-02-15T06:14:41.938Z,1.31
2023-02-15T06:16:43.496Z,1.31
2023-02-15T06:18:45.081Z,1.31
2023-02-15T06:20:47.070Z,1.31
2023-02-15T06:22:50.287Z,1.31
2023-02-15T06:24:51.837Z,1.30
2023-02-15T06:26:53.442Z,1.29
2023-02-15T06:28:54.996Z,1.29
2023-02-15T06:30:58.169Z,1.27
2023-02-15T06:32:59.930Z,1.25
2023-02-15T06:35:01.679Z,1.24
2023-02-15T06:37:03.239Z,1.24
2023-02-15T06:39:06.327Z,1.24
2023-02-15T06:41:07.998Z,1.22
2023-02-15T06:43:09.543Z,1.21
2023-02-15T06:45:12.234Z,1.20
2023-02-15T06:47:14.072Z,1.20
2023-02-15T06:49:15.645Z,1.19
2023-02-15T06:51:17.202Z,1.18
2023-02-15T06:53:19.055Z,1.19
2023-02-15T06:55:22.196Z,1.19
2023-02-15T06:57:23.743Z,1.19
2023-02-15T06:59:26.129Z,1.19
2023-02-15T07:01:27.794Z,1.19
2023-02-15T07:03:29.682Z,1.20
2023-02-15T07:05:34.859Z,1.22
2023-02-15T07:07:36.476Z,1.23
2023-02-15T07:09:38.282Z,1.25
2023-02-15T07:11:41.205Z,1.25
2023-02-15T07:13:42.755Z,1.26
2023-02-15T07:15:44.479Z,1.29
2023-02-15T07:17:46.024Z,1.29
2023-02-15T07:19:47.604Z,1.31
2023-02-15T07:21:49.298Z,1.33
2023-02-15T07:23:51.245Z,1.34
2023-02-15T07:25:57.804Z,1.37
2023-02-15T07:28:03.108Z,1.38
2023-02-15T07:30:06.366Z,1.39
2023-02-15T07:32:08.291Z,1.39
2023-02-15T07:34:10.096Z,1.43
2023-02-15T07:36:12.008Z,1.44
2023-02-15T07:38:13.890Z,1.46
2023-02-15T07:40:17.666Z,1.49
2023-02-15T07:42:19.552Z,1.51
2023-02-15T07:44:22.508Z,1.54
2023-02-15T07:46:24.220Z,1.56
2023-02-15T07:48:25.907Z,1.59
2023-02-15T07:50:27.673Z,1.62
2023-02-15T07:52:29.214Z,1.65
2023-02-15T07:54:31.474Z,1.67
2023-02-15T07:56:34.107Z,1.68
2023-02-15T07:58:36.525Z,1.72
2023-02-15T08:00:39.739Z,1.73
2023-02-15T08:02:41.719Z,1.75
2023-02-15T08:04:43.425Z,1.78
2023-02-15T08:06:44.934Z,1.81
2023-02-15T08:08:46.544Z,1.83
2023-02-15T08:10:48.373Z,1.85
2023-02-15T08:12:49.960Z,1.87
2023-02-15T08:14:51.582Z,1.88
2023-02-15T08:16:56.075Z,1.90
2023-02-15T08:18:59.165Z,1.93
2023-02-15T08:21:01.504Z,1.95
2023-02-15T08:23:03.097Z,1.98
2023-02-15T08:25:05.209Z,2.02
2023-02-15T08:27:08.635Z,2.02
2023-02-15T08:29:10.685Z,2.07
2023-02-15T08:31:13.967Z,2.11
2023-02-15T08:33:17.287Z,2.14
2023-02-15T08:35:18.939Z,2.17
2023-02-15T08:37:20.662Z,2.19
2023-02-15T08:39:22.447Z,2.21
2023-02-15T08:41:26.451Z,2.24
2023-02-15T08:43:30.263Z,2.26
2023-02-15T08:45:31.878Z,2.29
2023-02-15T08:47:33.470Z,2.33
2023-02-15T08:49:36.543Z,2.35
2023-02-15T08:51:39.364Z,2.40
2023-02-15T08:53:42.298Z,2.42
2023-02-15T08:55:44.078Z,2.47
2023-02-15T08:57:48.741Z,2.50
2023-02-15T08:59:50.412Z,2.53
2023-02-15T09:01:53.037Z,2.57
2023-02-15T09:03:57.590Z,2.60
2023-02-15T09:06:02.397Z,2.63
2023-02-15T09:08:04.271Z,2.66
2023-02-15T09:10:07.803Z,2.70
2023-02-15T09:12:09.641Z,2.73
2023-02-15T09:14:14.262Z,2.76
2023-02-15T09:16:15.942Z,2.78
2023-02-15T09:18:17.582Z,2.81
2023-02-15T09:20:19.258Z,2.83
2023-02-15T09:22:22.235Z,2.86
2023-02-15T09:24:23.794Z,2.91
2023-02-15T09:26:25.788Z,2.94
2023-02-15T09:28:27.401Z,2.99
2023-02-15T09:30:29.293Z,3.02
2023-02-15T09:32:31.369Z,3.06
2023-02-15T09:34:35.033Z,3.10
2023-02-15T09:36:39.601Z,3.14
2023-02-15T09:38:42.761Z,3.17
2023-02-15T09:40:56.550Z,3.20
2023-02-15T09:43:13.701Z,3.25
2023-02-15T09:45:27.370Z,3.30
2023-02-15T09:47:55.976Z,3.34
2023-02-15T09:50:07.217Z,3.38
2023-02-15T09:52:28.815Z,3.42
2023-02-15T09:54:50.069Z,3.46
2023-02-15T09:56:56.650Z,3.49
2023-02-15T09:59:10.087Z,3.50
2023-02-15T10:01:20.142Z,3.53
2023-02-15T10:03:35.903Z,3.57
2023-02-15T10:05:49.122Z,3.61
2023-02-15T10:08:14.397Z,3.66
2023-02-15T10:10:26.412Z,3.70
2023-02-15T10:12:42.436Z,3.74
2023-02-15T10:15:01.517Z,3.78
2023-02-15T10:17:13.740Z,3.79
2023-02-15T10:19:26.237Z,3.85
2023-02-15T10:21:44.900Z,3.88
2023-02-15T10:24:05.980Z,3.90
2023-02-15T10:26:17.601Z,3.92
2023-02-15T10:28:21.798Z,3.95
2023-02-15T10:30:34.516Z,3.98
2023-02-15T10:32:43.268Z,4.01
2023-02-15T10:34:51.759Z,4.06
2023-02-15T10:37:11.722Z,4.11
2023-02-15T10:39:24.299Z,4.15
2023-02-15T10:41:39.044Z,4.19
2023-02-15T10:44:04.063Z,4.26
2023-02-15T10:46:19.152Z,4.30
2023-02-15T10:48:40.785Z,4.32
2023-02-15T10:50:50.369Z,4.35
2023-02-15T10:53:15.146Z,4.36
2023-02-15T10:55:24.619Z,4.40
2023-02-15T10:57:40.673Z,4.44
2023-02-15T10:59:57.860Z,4.50
2023-02-15T11:02:05.582Z,4.54
2023-02-15T11:04:33.532Z,4.60
2023-02-15T11:06:39.021Z,4.67
2023-02-15T11:08:45.432Z,4.69
2023-02-15T11:10:52.729Z,4.76
2023-02-15T11:12:58.142Z,4.80
2023-02-15T11:15:05.173Z,4.84
2023-02-15T11:17:11.439Z,4.86
2023-02-15T11:19:18.424Z,4.92
2023-02-15T11:21:23.745Z,4.97
2023-02-15T11:23:27.558Z,5.01
2023-02-15T11:25:33.007Z,5.07
2023-02-15T11:27:35.183Z,5.12
2023-02-15T11:29:42.303Z,5.19
2023-02-15T11:31:46.421Z,5.23
2023-02-15T11:33:52.871Z,5.28
2023-02-15T11:36:00.419Z,5.34
2023-02-15T11:38:07.320Z,5.36
2023-02-15T11:40:21.580Z,5.42
2023-02-15T11:42:26.282Z,5.46
2023-02-15T11:44:34.420Z,5.51
2023-02-15T11:46:38.330Z,5.56
2023-02-15T11:48:40.601Z,5.61
2023-02-15T11:50:43.692Z,5.65
2023-02-15T11:52:45.700Z,5.70
2023-02-15T11:54:52.382Z,5.75
2023-02-15T11:56:55.580Z,5.76
2023-02-15T11:59:00.801Z,5.81
2023-02-15T12:01:10.815Z,5.83
2023-02-15T12:03:20.942Z,5.85
2023-02-15T12:05:26.046Z,5.87
2023-02-15T12:07:32.801Z,5.86
2023-02-15T12:09:39.778Z,5.86
2023-02-15T12:11:42.361Z,5.86
2023-02-15T12:13:58.425Z,5.88
2023-02-15T12:16:08.350Z,5.88
2023-02-15T12:18:22.326Z,5.88
2023-02-15T12:20:30.416Z,5.88
2023-02-15T12:22:35.463Z,5.90
2023-02-15T12:24:44.686Z,5.89
2023-02-15T12:26:58.465Z,5.94
2023-02-15T12:29:03.223Z,5.92
2023-02-15T12:31:11.220Z,5.96
2023-02-15T12:33:18.108Z,5.99
2023-02-15T12:35:29.912Z,6.01
2023-02-15T12:37:32.796Z,6.02
2023-02-15T12:39:34.373Z,6.03
2023-02-15T12:41:38.421Z,6.05
2023-02-15T12:43:40.202Z,6.07
2023-02-15T12:45:42.046Z,6.10
2023-02-15T12:47:43.666Z,6.10
2023-02-15T12:50:04.600Z,6.12
2023-02-15T12:52:26.137Z,6.16
2023-02-15T12:54:39.999Z,6.17
2023-02-15T12:56:41.544Z,6.16
2023-02-15T12:58:43.682Z,6.17
2023-02-15T13:00:45.719Z,6.20
2023-02-15T13:02:49.628Z,6.22
2023-02-15T13:04:52.355Z,6.22
2023-02-15T13:06:57.229Z,6.23
2023-02-15T13:09:09.350Z,6.24
2023-02-15T13:11:12.855Z,6.23
2023-02-15T13:13:21.236Z,6.25
2023-02-15T13:15:29.473Z,6.26
2023-02-15T13:17:33.605Z,6.27
2023-02-15T13:19:41.083Z,6.29
2023-02-15T13:21:45.843Z,6.31
2023-02-15T13:23:51.933Z,6.33
2023-02-15T13:25:57.588Z,6.33
2023-02-15T13:28:03.726Z,6.35
2023-02-15T13:30:17.885Z,6.35
2023-02-15T13:32:29.422Z,6.36
2023-02-15T13:34:34.603Z,6.36
2023-02-15T13:36:45.508Z,6.38
2023-02-15T13:38:54.576Z,6.39
2023-02-15T13:41:04.697Z,6.39
2023-02-15T13:43:21.826Z,6.44
2023-02-15T13:45:41.272Z,6.46
2023-02-15T13:47:50.442Z,6.46
2023-02-15T13:50:11.822Z,6.47
2023-02-15T13:52:20.917Z,6.49
2023-02-15T13:54:37.913Z,6.50
2023-02-15T13:56:53.046Z,6.51
2023-02-15T13:59:16.646Z,6.53
2023-02-15T14:01:27.605Z,6.54
2023-02-15T14:04:00.225Z,6.56
2023-02-15T14:06:16.235Z,6.57
2023-02-15T14:08:27.359Z,6.57
2023-02-15T14:10:39.835Z,6.59
2023-02-15T14:13:03.826Z,6.62
2023-02-15T14:15:33.042Z,6.65
2023-02-15T14:17:48.736Z,6.66
2023-02-15T14:19:55.250Z,6.69
2023-02-15T14:22:01.606Z,6.73
2023-02-15T14:24:18.427Z,6.75
2023-02-15T14:26:26.745Z,6.80
2023-02-15T14:28:38.932Z,6.82
2023-02-15T14:30:45.507Z,6.84
2023-02-15T14:32:51.676Z,6.90
2023-02-15T14:34:55.764Z,6.91
2023-02-15T14:36:58.711Z,6.95
2023-02-15T14:39:20.144Z,7.00
2023-02-15T14:41:28.754Z,7.02
2023-02-15T14:43:43.406Z,7.03
2023-02-15T14:45:50.764Z,7.02
2023-02-15T14:48:03.794Z,7.03
2023-02-15T14:50:54.025Z,7.05
2023-02-15T14:53:18.399Z,7.05
2023-02-15T14:55:36.847Z,7.07
2023-02-15T14:57:38.521Z,7.04
2023-02-15T14:59:46.297Z,7.06
2023-02-15T15:01:58.402Z,7.09
2023-02-15T15:04:04.684Z,7.08
2023-02-15T15:06:07.036Z,7.10
2023-02-15T15:08:26.885Z,7.10
2023-02-15T15:10:39.381Z,7.10
2023-02-15T15:12:41.469Z,7.10
2023-02-15T15:14:45.343Z,7.09
2023-02-15T15:16:50.433Z,7.09
2023-02-15T15:18:52.677Z,7.08
2023-02-15T15:20:54.433Z,7.06
2023-02-15T15:23:40.836Z,7.08
2023-02-15T15:25:44.586Z,7.02
2023-02-15T15:27:50.365Z,7.02
2023-02-15T15:29:53.680Z,6.98
2023-02-15T15:32:00.723Z,6.97
2023-02-15T15:34:19.793Z,6.96
2023-02-15T15:37:02.286Z,6.94
2023-02-15T15:39:21.878Z,6.89
2023-02-15T15:41:39.452Z,6.84
2023-02-15T15:44:08.087Z,6.82
2023-02-15T15:46:34.127Z,6.77
2023-02-15T15:48:37.726Z,6.69
2023-02-15T15:50:41.764Z,6.64
2023-02-15T15:52:48.601Z,6.58
2023-02-15T15:54:55.907Z,6.52
2023-02-15T15:57:03.088Z,6.45
2023-02-15T15:59:08.481Z,6.41
2023-02-15T16:01:12.266Z,6.35
2023-02-15T16:03:17.681Z,6.32
2023-02-15T16:05:19.576Z,6.28
2023-02-15T16:07:27.575Z,6.24
2023-02-15T16:09:29.326Z,6.17
2023-02-15T16:11:32.315Z,6.13
2023-02-15T16:13:34.782Z,6.08
2023-02-15T16:15:44.641Z,6.05
2023-02-15T16:17:50.623Z,6.00
2023-02-15T16:19:57.266Z,5.96
2023-02-15T16:22:01.509Z,5.91
2023-02-15T16:24:23.223Z,5.86
2023-02-15T16:26:49.998Z,5.79
2023-02-15T16:28:52.560Z,5.72
2023-02-15T16:31:07.568Z,5.69
2023-02-15T16:33:11.436Z,5.67
2023-02-15T16:35:17.572Z,5.63
2023-02-15T16:37:20.860Z,5.59
2023-02-15T16:39:22.375Z,5.54
2023-02-15T16:41:27.405Z,5.49
2023-02-15T16:43:32.854Z,5.45
2023-02-15T16:45:35.312Z,5.40
2023-02-15T16:47:42.466Z,5.37
2023-02-15T16:49:47.461Z,5.34
2023-02-15T16:51:58.710Z,5.30
2023-02-15T16:54:06.784Z,5.25
2023-02-15T16:56:08.602Z,5.19
2023-02-15T16:58:17.347Z,5.15
2023-02-15T17:00:21.145Z,5.07
2023-02-15T17:02:49.392Z,5.04
2023-02-15T17:05:06.570Z,4.99
2023-02-15T17:07:18.665Z,4.93
2023-02-15T17:09:23.776Z,4.87
2023-02-15T17:11:35.578Z,4.83
2023-02-15T17:13:37.196Z,4.78
2023-02-15T17:15:41.014Z,4.74
2023-02-15T17:17:42.702Z,4.71
2023-02-15T17:19:50.254Z,4.68
2023-02-15T17:21:54.999Z,4.65
2023-02-15T17:24:01.472Z,4.65
2023-02-15T17:26:14.023Z,4.60
2023-02-15T17:28:19.247Z,4.55
2023-02-15T17:30:29.401Z,4.53
2023-02-15T17:32:32.930Z,4.50
2023-02-15T17:35:01.115Z,4.51
2023-02-15T17:37:02.700Z,4.47
2023-02-15T17:39:19.248Z,4.48
2023-02-15T17:41:21.120Z,4.46
2023-02-15T17:43:22.915Z,4.48
2023-02-15T17:45:29.452Z,4.47
2023-02-15T17:47:31.103Z,4.48
2023-02-15T17:49:33.213Z,4.47
2023-02-15T17:51:36.545Z,4.49
2023-02-15T17:53:38.658Z,4.49
2023-02-15T17:55:41.632Z,4.50
2023-02-15T17:57:43.255Z,4.51
2023-02-15T17:59:44.926Z,4.51
2023-02-15T18:01:48.899Z,4.53
2023-02-15T18:03:52.024Z,4.53
2023-02-15T18:05:54.026Z,4.54
2023-02-15T18:07:55.906Z,4.55
2023-02-15T18:09:57.499Z,4.57
2023-02-15T18:12:01.062Z,4.58
2023-02-15T18:14:02.896Z,4.58
2023-02-15T18:16:04.834Z,4.58
2023-02-15T18:18:09.529Z,4.59
2023-02-15T18:20:20.640Z,4.60
2023-02-15T18:22:22.430Z,4.60
2023-02-15T18:24:26.461Z,4.60
2023-02-15T18:26:28.981Z,4.60
2023-02-15T18:28:32.132Z,4.61
2023-02-15T18:30:34.281Z,4.60
2023-02-15T18:32:38.257Z,4.61
2023-02-15T18:34:42.855Z,4.60
2023-02-15T18:36:45.307Z,4.62
2023-02-15T18:38:47.375Z,4.62
2023-02-15T18:40:48.966Z,4.62
2023-02-15T18:42:50.685Z,4.64
2023-02-15T18:44:56.673Z,4.65
2023-02-15T18:46:58.520Z,4.61
2023-02-15T18:49:00.140Z,4.61
2023-02-15T18:51:02.206Z,4.61
2023-02-15T18:53:06.210Z,4.61
2023-02-15T18:55:17.755Z,4.60
2023-02-15T18:57:19.846Z,4.58
2023-02-15T18:59:22.907Z,4.57
2023-02-15T19:01:26.285Z,4.55
2023-02-15T19:03:27.997Z,4.53
2023-02-15T19:05:30.534Z,4.50
2023-02-15T19:07:34.096Z,4.50
2023-02-15T19:09:35.718Z,4.47
2023-02-15T19:11:37.681Z,4.43
2023-02-15T19:13:39.219Z,4.41
2023-02-15T19:15:41.497Z,4.38
2023-02-15T19:17:44.884Z,4.34
2023-02-15T19:19:47.139Z,4.30
2023-02-15T19:21:50.163Z,4.30
2023-02-15T19:23:55.380Z,4.29
2023-02-15T19:25:57.071Z,4.25
2023-02-15T19:27:59.689Z,4.22
2023-02-15T19:30:03.945Z,4.19
2023-02-15T19:32:05.720Z,4.17
2023-02-15T19:34:14.827Z,4.15
2023-02-15T19:36:18.104Z,4.13
2023-02-15T19:38:23.641Z,4.12
2023-02-15T19:40:27.418Z,4.11
2023-02-15T19:42:29.704Z,4.10
2023-02-15T19:44:31.320Z,4.09
2023-02-15T19:46:33.013Z,4.07
2023-02-15T19:48:34.720Z,4.07
2023-02-15T19:50:37.806Z,4.06
2023-02-15T19:52:40.430Z,4.07
2023-02-15T19:54:44.603Z,4.08
2023-02-15T19:56:47.526Z,4.08
2023-02-15T19:58:50.683Z,4.08
2023-02-15T20:00:52.444Z,4.09
2023-02-15T20:02:55.106Z,4.08
2023-02-15T20:04:57.046Z,4.08
2023-02-15T20:07:02.981Z,4.09
2023-02-15T20:09:05.365Z,4.08
2023-02-15T20:11:09.333Z,4.08
2023-02-15T20:13:14.416Z,4.09
2023-02-15T20:15:21.790Z,4.09
2023-02-15T20:17:23.575Z,4.07
2023-02-15T20:19:25.227Z,4.09
2023-02-15T20:21:26.891Z,4.10
2023-02-15T20:23:33.825Z,4.12
2023-02-15T20:25:35.585Z,4.11
2023-02-15T20:27:37.226Z,4.14
2023-02-15T20:29:39.714Z,4.14
2023-02-15T20:31:42.565Z,4.15
2023-02-15T20:33:44.337Z,4.16
2023-02-15T20:35:47.011Z,4.16
2023-02-15T20:37:50.700Z,4.18
2023-02-15T20:39:53.709Z,4.18
2023-02-15T20:41:55.639Z,4.19
2023-02-15T20:43:57.235Z,4.20
2023-02-15T20:45:59.060Z,4.20
2023-02-15T20:48:00.814Z,4.21
2023-02-15T20:50:02.369Z,4.21
2023-02-15T20:52:14.674Z,4.21
2023-02-15T20:54:18.293Z,4.22
2023-02-15T20:56:24.106Z,4.23
2023-02-15T20:58:27.933Z,4.23
2023-02-15T21:00:32.000Z,4.23
2023-02-15T21:02:33.756Z,4.22
2023-02-15T21:04:35.385Z,4.25
2023-02-15T21:06:37.244Z,4.25
2023-02-15T21:08:38.823Z,4.24
2023-02-15T21:10:41.077Z,4.23
2023-02-15T21:12:45.190Z,4.23
2023-02-15T21:14:47.263Z,4.23
2023-02-15T21:16:50.481Z,4.21
2023-02-15T21:18:52.098Z,4.21
2023-02-15T21:20:57.036Z,4.22
2023-02-15T21:23:02.874Z,4.20
2023-02-15T21:25:05.241Z,4.20
2023-02-15T21:27:07.527Z,4.19
2023-02-15T21:29:15.924Z,4.18
2023-02-15T21:31:19.717Z,4.16
2023-02-15T21:33:21.662Z,4.16
2023-02-15T21:35:23.345Z,4.16
2023-02-15T21:37:32.075Z,4.17
2023-02-15T21:39:36.055Z,4.19
2023-02-15T21:41:37.749Z,4.19
2023-02-15T21:43:39.560Z,4.20
2023-02-15T21:45:42.917Z,4.20
2023-02-15T21:47:44.532Z,4.19
2023-02-15T21:49:46.079Z,4.18
2023-02-15T21:51:47.901Z,4.19
2023-02-15T21:53:49.531Z,4.18
2023-02-15T21:55:52.575Z,4.17
2023-02-15T21:57:54.166Z,4.15
2023-02-15T21:59:55.861Z,4.16
2023-02-15T22:01:59.024Z,4.16
2023-02-15T22:04:00.793Z,4.15
2023-02-15T22:06:02.980Z,4.14
2023-02-15T22:08:11.211Z,4.14
2023-02-15T22:10:13.461Z,4.14
2023-02-15T22:12:16.903Z,4.11
2023-02-15T22:14:35.934Z,4.12
2023-02-15T22:16:37.558Z,4.09
2023-02-15T22:18:40.933Z,4.08
2023-02-15T22:20:42.601Z,4.10
2023-02-15T22:22:44.380Z,4.09
2023-02-15T22:24:46.005Z,4.10
2023-02-15T22:26:47.684Z,4.09
2023-02-15T22:28:49.626Z,4.09
2023-02-15T22:30:52.314Z,4.09
2023-02-15T22:32:55.398Z,4.09
2023-02-15T22:34:58.504Z,4.09
2023-02-15T22:37:00.380Z,4.11
2023-02-15T22:39:02.035Z,4.09
2023-02-15T22:41:04.821Z,4.09
2023-02-15T22:43:13.613Z,4.08
2023-02-15T22:45:18.746Z,4.09
2023-02-15T22:47:22.650Z,4.07
2023-02-15T22:49:24.612Z,4.07
2023-02-15T22:51:29.698Z,4.06
2023-02-15T22:53:31.440Z,4.06
2023-02-15T22:55:37.412Z,4.06
2023-02-15T22:57:39.100Z,4.03
2023-02-15T22:59:40.766Z,4.03
2023-02-15T23:01:42.819Z,4.02
2023-02-15T23:03:44.785Z,4.01
2023-02-15T23:05:46.993Z,4.01
2023-02-15T23:07:50.921Z,3.99
2023-02-15T23:09:52.789Z,3.99
2023-02-15T23:11:54.645Z,3.98
2023-02-15T23:13:56.430Z,3.95
2023-02-15T23:16:01.036Z,3.93
2023-02-15T23:18:16.407Z,3.95
2023-02-15T23:20:18.154Z,3.91
2023-02-15T23:22:19.754Z,3.92
2023-02-15T23:24:24.368Z,3.92
2023-02-15T23:26:28.128Z,3.91
2023-02-15T23:28:31.962Z,3.91
2023-02-15T23:30:34.479Z,3.92
2023-02-15T23:32:36.184Z,3.91
2023-02-15T23:34:38.242Z,3.93
2023-02-15T23:36:39.944Z,3.93
2023-02-15T23:38:41.472Z,3.95
2023-02-15T23:40:48.577Z,3.95
2023-02-15T23:42:50.161Z,3.95
2023-02-15T23:44:51.894Z,3.97
2023-02-15T23:46:53.808Z,3.96
2023-02-15T23:48:56.566Z,3.97
2023-02-15T23:50:59.110Z,3.98
2023-02-15T23:53:00.720Z,3.99
2023-02-15T23:55:02.313Z,4.00
2023-02-15T23:57:05.453Z,4.00
2023-02-15T23:59:07.960Z,4.01
